Time;durP1;ratioP1;P1;durP2;ratioP2;P2;SDS_P1;SDS_P2;PMS_P1;PMS_P2;Temp;Humidity;BMP_temperature;BMP_pressure;BME280_temperature;BME280_humidity;BME280_pressure;Samples;Min_cycle;Max_cycle;Signal;HPM_P1;HPM_P2
2023/07/25 00:01:03;;;;;;;15.02;5.70;;;23.30;94.90;;;;;;5072848;28;20020;-71
2023/07/25 00:03:29;;;;;;;19.00;5.63;;;23.30;94.80;;;;;;5072550;28;20483;-71
2023/07/25 00:05:54;;;;;;;13.18;6.10;;;23.30;94.70;;;;;;5072724;28;20031;-71
2023/07/25 00:08:20;;;;;;;16.17;6.22;;;23.30;94.40;;;;;;5072744;28;20086;-71
2023/07/25 00:10:46;;;;;;;16.40;6.15;;;23.30;94.20;;;;;;5072331;28;20087;-71
2023/07/25 00:13:12;;;;;;;15.63;5.25;;;23.40;94.10;;;;;;5072738;28;20032;-71
2023/07/25 00:15:37;;;;;;;15.60;5.82;;;23.40;94.10;;;;;;5072649;28;20025;-72
2023/07/25 00:18:04;;;;;;;13.98;5.80;;;23.40;94.10;;;;;;5072297;28;20374;-71
2023/07/25 00:20:30;;;;;;;16.83;6.68;;;23.40;94.10;;;;;;5072203;28;20060;-71
2023/07/25 00:22:56;;;;;;;15.32;6.10;;;23.40;94.10;;;;;;5072509;28;20035;-72
2023/07/25 00:25:22;;;;;;;18.73;6.18;;;23.40;94.30;;;;;;5072337;28;20028;-72
2023/07/25 00:27:48;;;;;;;18.13;6.15;;;23.40;94.40;;;;;;5074323;28;20077;-72
2023/07/25 00:30:13;;;;;;;18.80;6.20;;;23.40;94.50;;;;;;5075848;28;20024;-71
2023/07/25 00:32:39;;;;;;;13.98;5.95;;;23.40;94.50;;;;;;5076258;28;20036;-71
2023/07/25 00:35:05;;;;;;;21.10;6.40;;;23.40;94.50;;;;;;5076006;28;20021;-71
2023/07/25 00:37:31;;;;;;;15.13;6.18;;;23.40;94.50;;;;;;5076050;28;20146;-71
2023/07/25 00:39:57;;;;;;;14.95;6.00;;;23.50;94.40;;;;;;5075768;28;20466;-72
2023/07/25 00:42:23;;;;;;;12.80;5.97;;;23.40;94.30;;;;;;5075854;28;20111;-71
2023/07/25 00:44:50;;;;;;;16.92;5.60;;;23.40;94.30;;;;;;5075627;28;20021;-71
2023/07/25 00:47:17;;;;;;;16.30;5.88;;;23.40;94.20;;;;;;5075608;28;20079;-71
2023/07/25 00:49:43;;;;;;;15.05;6.03;;;23.50;94.20;;;;;;5074272;28;20017;-71
2023/07/25 00:52:09;;;;;;;16.42;5.72;;;23.50;94.10;;;;;;5074294;28;20053;-71
2023/07/25 00:54:39;;;;;;;16.25;6.50;;;23.40;94.20;;;;;;5075604;28;20043;-71
2023/07/25 00:57:08;;;;;;;12.75;5.45;;;23.40;94.40;;;;;;5075494;28;20051;-72
2023/07/25 00:59:33;;;;;;;20.38;6.30;;;23.40;94.50;;;;;;5072129;28;20025;-72
2023/07/25 01:02:00;;;;;;;15.75;5.72;;;23.40;94.60;;;;;;5072194;28;20531;-72
2023/07/25 01:04:26;;;;;;;18.05;5.80;;;23.40;94.70;;;;;;5073425;28;20515;-72
2023/07/25 01:06:56;;;;;;;15.60;5.97;;;23.40;94.80;;;;;;5075081;28;20508;-72
2023/07/25 01:09:54;;;;;;;12.32;6.20;;;23.40;94.90;;;;;;5074058;28;20036;-72
2023/07/25 01:12:20;;;;;;;16.92;5.90;;;23.40;94.90;;;;;;5041315;28;20056;-72
2023/07/25 01:14:45;;;;;;;19.00;6.40;;;23.30;94.90;;;;;;5074750;28;20025;-72
2023/07/25 01:17:14;;;;;;;13.38;5.88;;;23.30;95.00;;;;;;5075044;28;20043;-72
2023/07/25 01:19:46;;;;;;;13.75;6.57;;;23.40;95.10;;;;;;5074965;28;20486;-72
2023/07/25 01:22:12;;;;;;;20.52;6.03;;;23.30;95.10;;;;;;5075007;28;20021;-72
2023/07/25 01:24:42;;;;;;;17.13;5.75;;;23.30;95.10;;;;;;5075056;28;20060;-72
2023/07/25 01:27:08;;;;;;;11.95;6.10;;;23.30;95.20;;;;;;5075074;28;20115;-72
2023/07/25 01:29:34;;;;;;;17.95;6.35;;;23.30;95.20;;;;;;5074700;28;20032;-71
2023/07/25 01:32:00;;;;;;;15.32;6.22;;;23.30;95.20;;;;;;5074805;28;20051;-72
2023/07/25 01:34:25;;;;;;;14.50;5.78;;;23.30;95.30;;;;;;5074663;28;20078;-71
2023/07/25 01:36:51;;;;;;;18.85;6.18;;;23.30;95.20;;;;;;5074788;28;20051;-72
2023/07/25 01:39:17;;;;;;;19.98;6.10;;;23.30;95.10;;;;;;5074533;28;20103;-72
2023/07/25 01:41:45;;;;;;;16.70;5.55;;;23.30;95.10;;;;;;5074868;28;20044;-72
2023/07/25 01:44:11;;;;;;;16.83;5.28;;;23.30;95.10;;;;;;5074782;28;20025;-72
2023/07/25 01:46:40;;;;;;;14.93;5.72;;;23.30;95.00;;;;;;5074486;28;20478;-72
2023/07/25 01:49:10;;;;;;;16.20;5.38;;;23.20;95.00;;;;;;5074499;28;20028;-72
2023/07/25 01:51:35;;;;;;;14.45;5.25;;;23.30;95.00;;;;;;5074295;28;20040;-72
2023/07/25 01:54:01;;;;;;;25.98;5.50;;;23.20;94.90;;;;;;5074500;28;20371;-71
2023/07/25 01:56:27;;;;;;;21.45;6.75;;;23.20;94.90;;;;;;5074398;28;20032;-72
2023/07/25 01:58:53;;;;;;;18.98;5.88;;;23.20;94.90;;;;;;5074340;28;20032;-71
2023/07/25 02:01:19;;;;;;;14.98;5.47;;;23.20;95.00;;;;;;5074204;28;20044;-71
2023/07/25 02:03:45;;;;;;;16.60;5.55;;;23.20;94.90;;;;;;5074362;28;20024;-71
2023/07/25 02:06:10;;;;;;;19.58;5.53;;;23.20;94.90;;;;;;5074272;28;20025;-71
2023/07/25 02:08:36;;;;;;;17.77;5.25;;;23.20;94.90;;;;;;5074345;28;20028;-71
2023/07/25 02:11:02;;;;;;;17.92;5.75;;;23.20;94.90;;;;;;5074603;28;20039;-71
2023/07/25 02:13:28;;;;;;;17.00;5.63;;;23.10;94.90;;;;;;5074233;28;20025;-71
2023/07/25 02:15:54;;;;;;;14.15;5.50;;;23.10;94.90;;;;;;5073816;28;20035;-71
2023/07/25 02:18:19;;;;;;;22.73;5.80;;;23.20;94.90;;;;;;5074032;28;20020;-72
2023/07/25 02:20:45;;;;;;;18.17;5.28;;;23.10;94.90;;;;;;5073840;28;20024;-71
2023/07/25 02:23:11;;;;;;;22.70;6.05;;;23.10;94.80;;;;;;5073949;28;20025;-71
2023/07/25 02:25:36;;;;;;;14.65;5.15;;;23.10;94.70;;;;;;5072508;28;20381;-71
2023/07/25 02:28:02;;;;;;;14.77;5.57;;;23.10;94.60;;;;;;5073867;28;20032;-71
2023/07/25 02:30:28;;;;;;;20.33;5.88;;;23.20;94.50;;;;;;5073557;28;20115;-71
2023/07/25 02:32:54;;;;;;;18.55;5.93;;;23.20;94.40;;;;;;5073688;28;20043;-71
2023/07/25 02:35:19;;;;;;;17.73;5.22;;;23.20;94.40;;;;;;5073433;28;20077;-71
2023/07/25 02:37:45;;;;;;;15.65;5.40;;;23.10;94.50;;;;;;5073425;28;20017;-71
2023/07/25 02:40:11;;;;;;;19.45;5.50;;;23.20;94.60;;;;;;5073480;28;20025;-71
2023/07/25 02:42:37;;;;;;;18.60;5.05;;;23.10;94.50;;;;;;5073567;28;20051;-71
2023/07/25 02:45:03;;;;;;;15.95;5.20;;;23.20;94.60;;;;;;5072074;28;20059;-71
2023/07/25 02:47:28;;;;;;;14.93;5.47;;;23.10;94.60;;;;;;5073588;28;20033;-71
2023/07/25 02:49:54;;;;;;;14.73;5.50;;;23.10;94.60;;;;;;5072894;28;20012;-72
2023/07/25 02:52:20;;;;;;;15.27;4.93;;;23.10;94.60;;;;;;5073242;28;20048;-72
2023/07/25 02:54:46;;;;;;;16.35;5.50;;;23.10;94.50;;;;;;5073531;28;20153;-71
2023/07/25 02:57:11;;;;;;;12.90;4.72;;;23.10;94.50;;;;;;5073195;28;20378;-71
2023/07/25 02:59:37;;;;;;;13.40;4.57;;;23.10;94.50;;;;;;5073167;28;20501;-71
2023/07/25 03:02:03;;;;;;;16.83;4.85;;;23.10;94.30;;;;;;5073127;28;20033;-71
2023/07/25 03:04:30;;;;;;;18.75;5.55;;;23.10;94.30;;;;;;5073270;28;20420;-71
2023/07/25 03:06:56;;;;;;;15.80;5.75;;;23.00;94.30;;;;;;5073088;28;20028;-71
2023/07/25 03:09:22;;;;;;;18.67;4.35;;;23.00;94.30;;;;;;5073045;28;20017;-71
2023/07/25 03:11:47;;;;;;;17.35;5.22;;;23.10;94.30;;;;;;5073413;28;20064;-71
2023/07/25 03:14:13;;;;;;;16.55;4.88;;;23.00;94.30;;;;;;5072767;28;20428;-71
2023/07/25 03:16:39;;;;;;;13.23;5.20;;;23.00;94.30;;;;;;5073192;28;20050;-72
2023/07/25 03:19:04;;;;;;;19.70;5.43;;;23.00;94.30;;;;;;5073050;28;20074;-71
2023/07/25 03:21:30;;;;;;;16.50;4.80;;;23.00;94.30;;;;;;5073167;28;20045;-71
2023/07/25 03:23:56;;;;;;;21.65;5.35;;;23.00;94.30;;;;;;5072955;28;20111;-71
2023/07/25 03:26:22;;;;;;;14.45;4.82;;;23.00;94.30;;;;;;5072848;28;20024;-71
2023/07/25 03:28:47;;;;;;;13.13;5.05;;;23.00;94.30;;;;;;5072960;28;20024;-71
2023/07/25 03:31:13;;;;;;;22.95;5.25;;;22.90;94.30;;;;;;5072714;28;20115;-71
2023/07/25 03:33:39;;;;;;;14.32;4.53;;;22.90;94.40;;;;;;5072750;28;20025;-71
2023/07/25 03:36:07;;;;;;;12.82;4.60;;;22.90;94.40;;;;;;5072662;28;20074;-71
2023/07/25 03:38:33;;;;;;;12.88;5.35;;;22.90;94.40;;;;;;5073011;28;20073;-71
2023/07/25 03:40:58;;;;;;;17.63;5.43;;;22.90;94.50;;;;;;5072801;28;20029;-71
2023/07/25 03:43:24;;;;;;;17.40;5.50;;;22.90;94.50;;;;;;5072782;28;20021;-72
2023/07/25 03:45:50;;;;;;;15.55;5.70;;;22.90;94.50;;;;;;5072746;28;20029;-71
2023/07/25 03:48:16;;;;;;;12.88;4.78;;;22.90;94.40;;;;;;5072918;28;20029;-71
2023/07/25 03:50:41;;;;;;;19.10;4.97;;;22.90;94.30;;;;;;5072569;28;20525;-71
2023/07/25 03:53:07;;;;;;;12.57;4.40;;;22.90;94.20;;;;;;5072424;28;20016;-71
2023/07/25 03:55:33;;;;;;;9.75;4.80;;;22.90;94.10;;;;;;5072573;28;20117;-71
2023/07/25 03:57:58;;;;;;;14.95;5.13;;;22.90;94.10;;;;;;5072510;28;20029;-71
2023/07/25 04:00:24;;;;;;;14.43;5.28;;;22.90;94.10;;;;;;5072488;28;20028;-72
2023/07/25 04:02:50;;;;;;;20.35;4.95;;;22.90;94.10;;;;;;5074968;28;20024;-71
2023/07/25 04:05:16;;;;;;;18.15;4.90;;;22.90;94.10;;;;;;5076363;28;20111;-71
2023/07/25 04:07:41;;;;;;;17.63;6.20;;;22.90;94.10;;;;;;5076732;28;20017;-72
2023/07/25 04:10:07;;;;;;;16.38;5.22;;;22.90;94.00;;;;;;5076373;28;20035;-72
2023/07/25 04:12:33;;;;;;;18.90;4.72;;;22.90;94.00;;;;;;5076518;28;20047;-71
2023/07/25 04:14:59;;;;;;;14.38;5.20;;;22.90;94.00;;;;;;5076374;28;20473;-72
2023/07/25 04:17:24;;;;;;;13.88;4.47;;;22.90;94.00;;;;;;5076262;28;20028;-72
2023/07/25 04:19:50;;;;;;;13.10;4.30;;;23.00;94.00;;;;;;5076458;28;20028;-72
2023/07/25 04:22:16;;;;;;;16.40;4.18;;;23.00;93.90;;;;;;5076272;28;20029;-72
2023/07/25 04:24:42;;;;;;;16.98;4.95;;;23.00;93.80;;;;;;5076062;28;20013;-71
2023/07/25 04:27:07;;;;;;;16.50;5.10;;;23.00;93.60;;;;;;5076078;28;20036;-72
2023/07/25 04:29:33;;;;;;;15.45;4.50;;;23.00;93.60;;;;;;5076075;28;20044;-71
2023/07/25 04:31:59;;;;;;;15.85;3.95;;;23.00;93.60;;;;;;5074885;28;20036;-71
2023/07/25 04:34:25;;;;;;;13.50;4.38;;;23.00;93.60;;;;;;5074535;28;20108;-71
2023/07/25 04:36:51;;;;;;;14.52;4.50;;;23.00;93.60;;;;;;5075939;28;20040;-71
2023/07/25 04:39:16;;;;;;;18.13;5.55;;;23.00;93.60;;;;;;5075942;28;20020;-71
2023/07/25 04:41:42;;;;;;;14.25;4.15;;;23.00;93.70;;;;;;5075821;28;20028;-72
2023/07/25 04:44:08;;;;;;;15.30;4.97;;;23.00;93.80;;;;;;5075693;28;20028;-71
2023/07/25 04:46:34;;;;;;;17.92;4.68;;;23.00;93.80;;;;;;5075781;28;20494;-72
2023/07/25 04:48:59;;;;;;;17.00;5.30;;;23.00;93.80;;;;;;5075681;28;20024;-72
2023/07/25 04:51:25;;;;;;;14.68;5.90;;;23.00;93.90;;;;;;5075366;28;20056;-71
2023/07/25 04:53:51;;;;;;;19.35;6.00;;;23.00;94.00;;;;;;5075500;28;20100;-71
2023/07/25 04:56:17;;;;;;;24.73;6.85;;;22.90;94.20;;;;;;5075308;28;20455;-71
2023/07/25 04:58:42;;;;;;;16.42;7.05;;;22.90;94.30;;;;;;5075384;28;20017;-71
2023/07/25 05:01:09;;;;;;;16.08;6.20;;;22.90;94.50;;;;;;5075347;28;20025;-71
2023/07/25 05:03:35;;;;;;;26.70;6.22;;;22.90;94.50;;;;;;5075269;28;20107;-71
2023/07/25 05:06:01;;;;;;;20.55;6.15;;;22.90;94.60;;;;;;5075269;28;20063;-71
2023/07/25 05:08:27;;;;;;;17.58;5.90;;;22.90;94.70;;;;;;5075153;28;20474;-71
2023/07/25 05:10:53;;;;;;;13.15;6.13;;;22.90;94.80;;;;;;5075053;28;20116;-71
2023/07/25 05:13:19;;;;;;;21.15;6.07;;;22.80;94.80;;;;;;5074819;28;20020;-71
2023/07/25 05:15:45;;;;;;;21.30;7.13;;;22.80;94.80;;;;;;5075250;28;20033;-71
2023/07/25 05:18:11;;;;;;;19.60;5.85;;;22.90;94.90;;;;;;5075360;28;20036;-71
2023/07/25 05:20:37;;;;;;;12.52;6.47;;;22.90;94.90;;;;;;5075055;28;20016;-71
2023/07/25 05:23:03;;;;;;;20.90;6.13;;;22.90;94.90;;;;;;5075330;28;20470;-71
2023/07/25 05:25:28;;;;;;;22.90;6.10;;;22.90;94.80;;;;;;5073923;28;20035;-71
2023/07/25 05:27:54;;;;;;;21.83;6.45;;;22.90;94.70;;;;;;5074940;28;20173;-71
2023/07/25 05:30:20;;;;;;;20.67;6.55;;;22.90;94.50;;;;;;5074945;28;20094;-71
2023/07/25 05:32:48;;;;;;;28.73;6.47;;;22.90;94.50;;;;;;5075021;28;20111;-71
2023/07/25 05:35:14;;;;;;;31.58;6.70;;;22.90;94.40;;;;;;5075018;28;20028;-72
2023/07/25 05:37:39;;;;;;;26.95;8.13;;;23.00;94.00;;;;;;5075387;28;20027;-72
2023/07/25 05:40:06;;;;;;;32.90;7.85;;;23.10;93.90;;;;;;5074586;28;20100;-72
2023/07/25 05:42:33;;;;;;;29.08;8.70;;;23.20;94.00;;;;;;5074710;28;20028;-71
2023/07/25 05:45:01;;;;;;;33.53;8.50;;;23.20;94.40;;;;;;5074548;28;20020;-71
2023/07/25 05:47:28;;;;;;;23.38;7.20;;;23.30;94.70;;;;;;5074378;28;20031;-72
2023/07/25 05:49:54;;;;;;;20.63;4.57;;;23.40;94.90;;;;;;5073019;28;20027;-71
2023/07/25 05:52:20;;;;;;;15.25;3.80;;;23.50;93.90;;;;;;5074383;28;20406;-72
2023/07/25 05:54:46;;;;;;;12.25;3.50;;;23.30;93.40;;;;;;5074404;28;20021;-72
2023/07/25 05:57:12;;;;;;;21.67;4.00;;;23.10;93.90;;;;;;5074663;28;20108;-72
2023/07/25 05:59:40;;;;;;;11.73;3.20;;;22.80;94.30;;;;;;5074683;28;20039;-71
2023/07/25 06:02:07;;;;;;;7.95;2.30;;;22.60;94.70;;;;;;5074402;28;20068;-72
2023/07/25 06:04:32;;;;;;;6.28;2.30;;;22.30;93.60;;;;;;5074401;28;20028;-72
2023/07/25 06:06:58;;;;;;;13.00;2.30;;;22.10;93.40;;;;;;5074394;28;20021;-72
2023/07/25 06:09:24;;;;;;;6.25;1.52;;;21.90;93.50;;;;;;5074474;28;20048;-72
2023/07/25 06:11:49;;;;;;;6.28;1.70;;;21.80;94.20;;;;;;5074215;28;20032;-72
2023/07/25 06:14:15;;;;;;;6.40;1.63;;;21.70;94.60;;;;;;5074398;28;20045;-71
2023/07/25 06:16:41;;;;;;;5.00;1.33;;;21.70;95.00;;;;;;5074244;28;20109;-72
2023/07/25 06:19:07;;;;;;;7.38;1.73;;;21.70;95.30;;;;;;5073995;28;20024;-71
2023/07/25 06:21:33;;;;;;;3.90;1.65;;;21.70;95.50;;;;;;5074060;28;20036;-72
2023/07/25 06:23:58;;;;;;;4.32;1.77;;;21.70;95.60;;;;;;5073615;28;20569;-72
2023/07/25 06:26:24;;;;;;;7.38;1.73;;;21.70;95.70;;;;;;5073366;28;20063;-71
2023/07/25 06:28:52;;;;;;;6.28;2.50;;;21.70;95.70;;;;;;5073977;28;20100;-71
2023/07/25 06:31:18;;;;;;;5.78;1.73;;;21.70;95.70;;;;;;5073832;28;20032;-71
2023/07/25 06:33:44;;;;;;;3.78;1.60;;;21.70;95.60;;;;;;5073441;28;20104;-72
2023/07/25 06:36:09;;;;;;;3.67;1.42;;;21.80;95.70;;;;;;5073671;28;20099;-72
2023/07/25 06:38:35;;;;;;;5.32;1.75;;;21.80;95.70;;;;;;5073419;28;20025;-71
2023/07/25 06:41:01;;;;;;;4.35;1.58;;;21.80;95.80;;;;;;5073440;28;20020;-72
2023/07/25 06:43:27;;;;;;;4.35;1.50;;;21.80;95.80;;;;;;5073296;28;20099;-72
2023/07/25 06:45:53;;;;;;;4.00;1.73;;;21.90;95.90;;;;;;5073342;28;20131;-71
2023/07/25 06:48:19;;;;;;;5.18;2.00;;;21.90;95.80;;;;;;5072819;28;20063;-72
2023/07/25 06:50:45;;;;;;;5.07;2.17;;;21.90;95.50;;;;;;5071661;28;20051;-72
2023/07/25 06:53:12;;;;;;;6.25;1.90;;;21.90;95.20;;;;;;5066824;28;20534;-72
2023/07/25 06:55:38;;;;;;;6.75;2.47;;;21.90;95.30;;;;;;5052926;28;20092;-73
2023/07/25 06:58:04;;;;;;;5.05;2.20;;;21.90;95.50;;;;;;5052949;28;20033;-73
2023/07/25 07:00:30;;;;;;;7.65;2.05;;;21.90;95.50;;;;;;5053170;28;20101;-73
2023/07/25 07:02:55;;;;;;;5.05;2.10;;;21.90;95.40;;;;;;5053112;28;20486;-72
2023/07/25 07:05:21;;;;;;;4.45;2.20;;;21.90;95.50;;;;;;5052983;28;20098;-73
2023/07/25 07:07:47;;;;;;;6.72;2.38;;;21.90;95.60;;;;;;5052908;28;20036;-72
2023/07/25 07:10:13;;;;;;;3.58;1.95;;;21.80;95.60;;;;;;5053069;28;20036;-72
2023/07/25 07:12:45;;;;;;;7.60;2.38;;;21.90;95.90;;;;;;5052829;28;20036;-72
2023/07/25 07:15:12;;;;;;;7.97;2.40;;;21.90;95.90;;;;;;5052684;28;20025;-72
2023/07/25 07:17:38;;;;;;;8.10;2.20;;;21.90;95.90;;;;;;5052461;28;20115;-72
2023/07/25 07:20:04;;;;;;;6.53;2.63;;;22.00;96.00;;;;;;5052564;28;20101;-72
2023/07/25 07:22:30;;;;;;;5.97;1.98;;;21.90;96.10;;;;;;5052891;28;20032;-73
2023/07/25 07:24:56;;;;;;;5.18;2.72;;;22.00;96.30;;;;;;5052729;28;20083;-72
2023/07/25 07:27:23;;;;;;;13.20;3.47;;;22.00;96.40;;;;;;5052586;28;20029;-72
2023/07/25 07:29:49;;;;;;;8.90;2.70;;;22.00;96.50;;;;;;5052349;28;20017;-73
2023/07/25 07:32:15;;;;;;;7.65;2.20;;;22.10;96.50;;;;;;5052061;28;20044;-73
2023/07/25 07:34:41;;;;;;;6.07;2.80;;;22.10;96.40;;;;;;5052033;28;20021;-72
2023/07/25 07:37:06;;;;;;;7.72;2.80;;;22.10;96.30;;;;;;5052253;28;20067;-73
2023/07/25 07:39:32;;;;;;;11.35;2.75;;;22.10;96.30;;;;;;5052611;28;20021;-73
2023/07/25 07:41:58;;;;;;;9.00;2.50;;;22.10;96.40;;;;;;5052855;28;20029;-72
2023/07/25 07:44:24;;;;;;;7.53;2.30;;;22.10;96.40;;;;;;5052404;28;20021;-73
2023/07/25 07:46:49;;;;;;;4.75;2.15;;;22.10;96.40;;;;;;5052322;28;20028;-73
2023/07/25 07:49:15;;;;;;;3.80;2.05;;;22.10;96.50;;;;;;5052116;28;20043;-71
2023/07/25 07:51:41;;;;;;;4.38;2.13;;;22.20;96.50;;;;;;5052174;28;20092;-72
2023/07/25 07:54:06;;;;;;;4.30;1.88;;;22.10;96.40;;;;;;5052420;28;20112;-72
2023/07/25 07:56:32;;;;;;;2.92;1.75;;;22.10;96.00;;;;;;5051846;28;20029;-72
2023/07/25 07:58:58;;;;;;;9.20;2.20;;;22.20;95.50;;;;;;5052258;28;20071;-72
2023/07/25 08:01:24;;;;;;;7.07;3.20;;;22.10;95.40;;;;;;5065095;28;20028;-72
2023/07/25 08:03:49;;;;;;;6.60;2.40;;;22.10;95.40;;;;;;5071982;28;20021;-72
2023/07/25 08:06:16;;;;;;;11.23;3.92;;;22.10;95.50;;;;;;5071758;28;20146;-72
2023/07/25 08:08:42;;;;;;;10.90;2.40;;;22.10;95.70;;;;;;5071796;28;20024;-72
2023/07/25 08:11:08;;;;;;;8.55;2.78;;;22.10;95.60;;;;;;5071414;28;20437;-73
2023/07/25 08:13:34;;;;;;;14.55;3.58;;;22.00;95.70;;;;;;5071881;28;20021;-72
2023/07/25 08:16:00;;;;;;;13.35;4.18;;;22.00;95.80;;;;;;5071355;28;20111;-72
2023/07/25 08:18:26;;;;;;;9.10;3.35;;;22.10;96.00;;;;;;5071871;28;20092;-72
2023/07/25 08:21:00;;;;;;;9.52;2.92;;;22.00;96.00;;;;;;5072271;28;20107;-72
2023/07/25 08:23:26;;;;;;;5.70;2.75;;;22.00;96.00;;;;;;5070437;28;20485;-71
2023/07/25 08:25:55;;;;;;;9.98;3.15;;;22.00;96.20;;;;;;5071638;28;20028;-72
2023/07/25 08:28:21;;;;;;;10.18;3.30;;;21.90;96.30;;;;;;5071925;28;20104;-71
2023/07/25 08:30:47;;;;;;;9.02;3.47;;;21.90;96.40;;;;;;5071839;28;20029;-72
2023/07/25 08:33:15;;;;;;;8.50;2.90;;;21.90;96.60;;;;;;5071650;28;20025;-71
2023/07/25 08:35:41;;;;;;;10.20;3.38;;;22.00;96.70;;;;;;5071477;28;20012;-72
2023/07/25 08:38:07;;;;;;;6.28;2.92;;;21.90;96.80;;;;;;5072189;28;20049;-72
2023/07/25 08:40:33;;;;;;;8.65;3.40;;;22.00;97.00;;;;;;5072113;28;20052;-72
2023/07/25 08:43:07;;;;;;;9.75;3.38;;;22.00;97.10;;;;;;5072329;28;20028;-72
2023/07/25 08:45:34;;;;;;;10.05;3.65;;;22.00;97.10;;;;;;5071859;28;20029;-72
2023/07/25 08:48:04;;;;;;;8.40;3.60;;;22.00;97.00;;;;;;5072976;28;20028;-72
2023/07/25 08:50:32;;;;;;;7.18;3.80;;;22.00;97.00;;;;;;5075526;28;20509;-72
2023/07/25 08:53:01;;;;;;;11.50;3.88;;;22.00;96.90;;;;;;5075786;28;20363;-72
2023/07/25 08:55:26;;;;;;;8.10;3.30;;;22.00;96.80;;;;;;5074765;28;20035;-72
2023/07/25 08:57:52;;;;;;;13.57;3.55;;;22.00;96.80;;;;;;5074997;28;20025;-72
2023/07/25 09:00:20;;;;;;;7.07;3.75;;;22.00;96.80;;;;;;5075063;28;20017;-72
2023/07/25 09:02:46;;;;;;;9.50;3.60;;;22.00;96.80;;;;;;5075146;28;20121;-72
2023/07/25 09:05:13;;;;;;;10.57;3.30;;;22.00;96.90;;;;;;5075156;28;20024;-72
2023/07/25 09:07:40;;;;;;;10.95;3.28;;;22.10;97.10;;;;;;5075159;28;20035;-71
2023/07/25 09:10:06;;;;;;;8.05;3.15;;;22.10;97.20;;;;;;5075374;28;20028;-72
2023/07/25 09:12:32;;;;;;;10.90;4.13;;;22.20;97.30;;;;;;5074960;28;20458;-72
2023/07/25 09:14:58;;;;;;;9.30;3.55;;;22.30;97.40;;;;;;5076017;28;20024;-72
2023/07/25 09:17:24;;;;;;;9.55;4.15;;;22.30;97.50;;;;;;5075341;28;20020;-72
2023/07/25 09:19:50;;;;;;;11.95;4.55;;;22.40;97.40;;;;;;5075941;28;20071;-72
2023/07/25 09:22:29;;;;;;;10.10;3.58;;;22.40;97.40;;;;;;5075078;28;20462;-72
2023/07/25 09:24:56;;;;;;;8.23;3.45;;;22.40;97.40;;;;;;5074843;28;20111;-71
2023/07/25 09:27:22;;;;;;;10.93;3.65;;;22.50;97.40;;;;;;5074824;28;20021;-72
2023/07/25 09:29:52;;;;;;;11.07;3.22;;;22.50;97.40;;;;;;5074996;28;20051;-71
2023/07/25 09:32:24;;;;;;;7.70;4.40;;;22.60;97.60;;;;;;5073689;28;20090;-71
2023/07/25 09:35:05;;;;;;;11.32;3.90;;;22.70;97.70;;;;;;5074902;28;20020;-72
2023/07/25 09:37:32;;;;;;;10.93;3.83;;;22.80;97.60;;;;;;5074718;28;20477;-72
2023/07/25 09:39:58;;;;;;;6.97;3.33;;;22.90;97.60;;;;;;5074824;28;20051;-71
2023/07/25 09:42:25;;;;;;;13.75;4.35;;;23.10;97.60;;;;;;5074651;28;20500;-72
2023/07/25 09:44:52;;;;;;;11.50;3.72;;;23.10;97.50;;;;;;5074613;28;20394;-72
2023/07/25 09:47:23;;;;;;;10.27;3.42;;;23.20;97.30;;;;;;5074598;28;20482;-71
2023/07/25 09:49:51;;;;;;;9.82;3.60;;;23.20;97.20;;;;;;5074522;28;20428;-72
2023/07/25 09:52:16;;;;;;;7.22;2.50;;;23.20;97.00;;;;;;5074120;28;20080;-72
2023/07/25 09:54:43;;;;;;;9.00;2.40;;;23.30;96.90;;;;;;5074227;28;20063;-71
2023/07/25 09:57:09;;;;;;;5.90;2.80;;;23.20;96.70;;;;;;5074473;28;20108;-72
2023/07/25 09:59:35;;;;;;;5.13;2.28;;;23.30;96.70;;;;;;5072539;28;20017;-71
2023/07/25 10:02:02;;;;;;;7.05;2.65;;;23.20;96.60;;;;;;5074168;28;20032;-72
2023/07/25 10:04:29;;;;;;;6.53;2.10;;;23.20;96.60;;;;;;5073675;28;20025;-72
2023/07/25 10:06:56;;;;;;;6.25;3.00;;;23.20;96.50;;;;;;5073817;28;20028;-72
2023/07/25 10:09:24;;;;;;;5.60;2.60;;;23.10;96.50;;;;;;5072867;28;20540;-72
2023/07/25 10:11:50;;;;;;;8.18;2.80;;;23.10;96.60;;;;;;5074045;28;20044;-72
2023/07/25 10:14:16;;;;;;;11.80;3.03;;;23.10;96.70;;;;;;5074036;28;20050;-72
2023/07/25 10:16:42;;;;;;;16.38;4.15;;;23.00;96.80;;;;;;5072556;28;20413;-71
2023/07/25 10:19:09;;;;;;;11.18;3.80;;;22.90;96.90;;;;;;5073435;28;20031;-71
2023/07/25 10:21:52;;;;;;;11.82;3.40;;;22.90;97.50;;;;;;5072681;28;20062;-72
2023/07/25 10:24:20;;;;;;;8.80;2.60;;;22.70;97.60;;;;;;5073727;28;20047;-72
2023/07/25 10:26:53;;;;;;;11.35;3.45;;;22.60;97.30;;;;;;5073718;28;20058;-72
2023/07/25 10:29:37;;;;;;;9.85;3.38;;;22.50;97.30;;;;;;5073717;28;20033;-72
2023/07/25 10:32:03;;;;;;;9.40;2.90;;;22.40;97.40;;;;;;5073779;28;20089;-71
2023/07/25 10:34:52;;;;;;;9.35;3.45;;;22.30;97.70;;;;;;5073511;28;20021;-72
2023/07/25 10:37:29;;;;;;;7.50;3.45;;;22.30;96.90;;;;;;5073562;28;20028;-71
2023/07/25 10:40:14;;;;;;;10.85;3.55;;;22.20;96.80;;;;;;5073099;28;20472;-71
2023/07/25 10:42:46;;;;;;;12.27;3.65;;;22.20;96.90;;;;;;5073693;28;20023;-71
2023/07/25 10:45:42;;;;;;;8.48;3.20;;;22.10;96.90;;;;;;5073544;28;20474;-72
2023/07/25 10:48:29;;;;;;;10.02;3.20;;;22.10;97.00;;;;;;5059157;28;20084;-71
2023/07/25 10:50:54;;;;;;;9.63;3.22;;;22.10;97.00;;;;;;5072906;28;20086;-71
2023/07/25 10:53:21;;;;;;;8.20;3.45;;;22.10;97.00;;;;;;5073300;28;20032;-71
2023/07/25 10:56:05;;;;;;;7.63;3.30;;;22.10;96.80;;;;;;5073238;28;20052;-71
2023/07/25 10:58:39;;;;;;;9.27;3.10;;;22.10;96.60;;;;;;5073318;28;20393;-71
2023/07/25 11:01:05;;;;;;;5.28;3.10;;;22.10;96.40;;;;;;5073131;28;20020;-71
2023/07/25 11:03:35;;;;;;;9.48;4.18;;;22.20;96.20;;;;;;5073094;28;20070;-71
2023/07/25 11:06:07;;;;;;;5.60;3.40;;;22.20;96.20;;;;;;5073152;28;20047;-71
2023/07/25 11:08:40;;;;;;;10.32;3.50;;;22.30;96.30;;;;;;5072961;28;20024;-72
2023/07/25 11:11:07;;;;;;;7.63;3.72;;;22.40;96.40;;;;;;5071233;28;20032;-71
2023/07/25 11:13:37;;;;;;;8.23;3.58;;;22.60;96.70;;;;;;5070111;28;20494;-72
2023/07/25 11:16:09;;;;;;;8.55;4.13;;;22.90;96.60;;;;;;5070333;28;20037;-73
2023/07/25 11:18:37;;;;;;;7.55;4.03;;;23.10;96.40;;;;;;5071761;28;20042;-72
2023/07/25 11:21:05;;;;;;;7.38;3.40;;;23.30;96.20;;;;;;5072812;28;20028;-73
2023/07/25 11:23:31;;;;;;;9.63;3.90;;;23.40;95.90;;;;;;5072648;28;20019;-71
2023/07/25 11:26:00;;;;;;;6.53;3.40;;;23.70;95.70;;;;;;5072319;28;20032;-71
2023/07/25 11:28:26;;;;;;;6.30;2.95;;;23.80;95.40;;;;;;5072901;28;20028;-71
2023/07/25 11:30:52;;;;;;;7.93;3.45;;;23.90;95.80;;;;;;5072530;28;20020;-71
2023/07/25 11:33:19;;;;;;;5.53;3.20;;;24.00;96.10;;;;;;5072355;28;20093;-70
2023/07/25 11:35:50;;;;;;;9.57;3.95;;;24.20;95.40;;;;;;5072075;28;20493;-70
2023/07/25 11:38:16;;;;;;;7.45;3.55;;;24.20;94.90;;;;;;5072249;28;20067;-71
2023/07/25 11:40:42;;;;;;;7.93;3.25;;;24.20;94.50;;;;;;5071359;28;20129;-71
2023/07/25 11:43:12;;;;;;;9.52;3.33;;;24.20;94.30;;;;;;5072091;28;20044;-71
2023/07/25 11:45:39;;;;;;;6.07;3.20;;;24.30;94.10;;;;;;5072203;28;20111;-70
2023/07/25 11:48:09;;;;;;;5.45;3.03;;;24.30;94.30;;;;;;5072352;28;20028;-70
2023/07/25 11:50:35;;;;;;;6.82;3.40;;;24.40;94.30;;;;;;5072021;28;20045;-70
2023/07/25 11:53:02;;;;;;;7.50;3.53;;;24.50;94.70;;;;;;5071270;28;20033;-70
2023/07/25 11:55:28;;;;;;;5.90;3.58;;;24.50;94.20;;;;;;5072010;28;20027;-71
2023/07/25 11:57:54;;;;;;;28.77;4.38;;;24.50;93.90;;;;;;5072128;28;20031;-69
2023/07/25 12:00:22;;;;;;;9.45;3.30;;;24.70;93.50;;;;;;5072564;28;20028;-70
2023/07/25 12:02:48;;;;;;;6.90;2.85;;;24.80;93.20;;;;;;5071201;28;20516;-69
2023/07/25 12:05:29;;;;;;;5.75;3.17;;;24.80;93.40;;;;;;5072239;28;20479;-69
2023/07/25 12:08:00;;;;;;;6.85;3.47;;;24.90;92.90;;;;;;5072467;28;20056;-71
2023/07/25 12:10:28;;;;;;;5.95;3.03;;;24.90;93.10;;;;;;5072141;28;20490;-70
2023/07/25 12:12:57;;;;;;;6.85;3.13;;;25.00;92.50;;;;;;5072090;28;20024;-70
2023/07/25 12:15:24;;;;;;;6.72;3.00;;;25.10;91.60;;;;;;5072190;28;20032;-70
2023/07/25 12:17:49;;;;;;;6.30;3.28;;;25.10;91.50;;;;;;5071628;28;20024;-67
2023/07/25 12:20:18;;;;;;;6.05;3.20;;;25.20;91.80;;;;;;5069016;28;20082;-71
2023/07/25 12:22:47;;;;;;;7.47;3.58;;;25.20;92.00;;;;;;5070074;28;20036;-69
2023/07/25 12:28:44;;;;;;;8.05;3.33;;;25.40;92.20;;;;;;5013002;28;20032;-70
2023/07/25 12:31:11;;;;;;;6.95;3.30;;;25.40;92.40;;;;;;5074493;28;20032;-70
2023/07/25 12:33:38;;;;;;;10.75;3.30;;;25.50;92.50;;;;;;5074607;28;20025;-69
2023/07/25 12:36:05;;;;;;;6.72;3.30;;;25.60;92.20;;;;;;5075757;28;20402;-69
2023/07/25 12:38:31;;;;;;;6.95;2.60;;;25.60;91.20;;;;;;5075888;28;20381;-69
2023/07/25 12:40:59;;;;;;;7.20;2.88;;;25.70;91.30;;;;;;5075587;28;20040;-69
2023/07/25 12:43:25;;;;;;;9.15;3.55;;;25.70;91.10;;;;;;5075804;28;20070;-69